createdAt,value
2018-12-25T00:01:21.247Z,3.17
2018-12-25T00:03:51.225Z,2.73
2018-12-25T00:06:21.190Z,2.77
2018-12-25T00:08:51.193Z,2.63
2018-12-25T00:11:21.156Z,3.10
2018-12-25T00:13:51.199Z,2.90
2018-12-25T00:16:21.162Z,2.60
2018-12-25T00:18:51.132Z,2.90
2018-12-25T00:21:21.181Z,2.73
2018-12-25T00:23:51.141Z,2.63
2018-12-25T00:26:21.193Z,2.57
2018-12-25T00:28:51.151Z,2.60
2018-12-25T00:31:21.182Z,2.50
2018-12-25T00:33:51.138Z,2.60
2018-12-25T00:36:21.090Z,2.60
2018-12-25T00:38:51.085Z,2.40
2018-12-25T00:41:21.035Z,2.30
2018-12-25T00:43:51.060Z,2.40
2018-12-25T00:46:21.021Z,2.20
2018-12-25T00:48:51.050Z,2.57
2018-12-25T00:51:20.997Z,2.50
2018-12-25T00:53:50.939Z,2.43
2018-12-25T00:56:20.928Z,2.50
2018-12-25T00:58:50.883Z,2.37
2018-12-25T01:01:20.837Z,2.20
2018-12-25T01:03:50.800Z,2.60
2018-12-25T01:06:20.755Z,2.43
2018-12-25T01:08:50.748Z,2.37
2018-12-25T01:11:20.764Z,2.50
2018-12-25T01:13:50.734Z,2.53
2018-12-25T01:16:20.697Z,2.50
2018-12-25T01:18:50.651Z,2.30
2018-12-25T01:21:20.610Z,2.40
2018-12-25T01:23:50.562Z,2.43
2018-12-25T01:26:20.554Z,2.30
2018-12-25T01:28:50.617Z,2.17
2018-12-25T01:31:20.582Z,2.33
2018-12-25T01:33:50.539Z,2.30
2018-12-25T01:36:20.578Z,2.40
2018-12-25T01:38:50.533Z,2.50
2018-12-25T01:41:20.486Z,2.00
2018-12-25T01:43:50.449Z,2.40
2018-12-25T01:46:20.419Z,2.30
2018-12-25T01:48:50.431Z,2.37
2018-12-25T01:51:20.386Z,2.53
2018-12-25T01:53:50.350Z,2.40
2018-12-25T01:56:20.305Z,2.27
2018-12-25T01:58:50.260Z,2.40
2018-12-25T02:01:20.406Z,2.23
2018-12-25T02:03:50.374Z,2.30
2018-12-25T02:06:21.266Z,2.17
2018-12-25T02:08:51.225Z,2.40
2018-12-25T02:11:21.191Z,2.13
2018-12-25T02:13:51.145Z,2.53
2018-12-25T02:16:21.138Z,2.00
2018-12-25T02:18:51.086Z,2.20
2018-12-25T02:21:21.056Z,2.10
2018-12-25T02:23:51.012Z,2.00
2018-12-25T02:26:20.975Z,2.20
2018-12-25T02:28:51.051Z,2.10
2018-12-25T02:31:21.008Z,2.23
2018-12-25T02:33:51.117Z,2.40
2018-12-25T02:36:21.086Z,1.80
2018-12-25T02:38:51.045Z,2.20
2018-12-25T02:41:21.022Z,2.03
2018-12-25T02:43:50.982Z,2.00
2018-12-25T02:46:21.012Z,1.90
2018-12-25T02:48:51.008Z,1.83
2018-12-25T02:51:21.120Z,1.73
2018-12-25T02:53:51.188Z,2.00
2018-12-25T02:56:21.220Z,1.90
2018-12-25T02:58:51.199Z,1.80
2018-12-25T03:01:21.175Z,1.80
2018-12-25T03:03:51.254Z,1.80
2018-12-25T03:06:21.214Z,2.10
2018-12-25T03:08:51.282Z,1.90
2018-12-25T03:11:21.241Z,1.90
2018-12-25T03:13:51.190Z,1.73
2018-12-25T03:16:21.181Z,1.70
2018-12-25T03:18:51.150Z,1.80
2018-12-25T03:21:21.151Z,1.80
2018-12-25T03:23:51.115Z,2.00
2018-12-25T03:26:21.093Z,1.73
2018-12-25T03:28:51.060Z,1.73
2018-12-25T03:31:21.096Z,1.80
2018-12-25T03:33:51.150Z,1.70
2018-12-25T03:36:21.107Z,2.00
2018-12-25T03:38:51.192Z,1.90
2018-12-25T03:41:21.145Z,1.80
2018-12-25T03:43:51.109Z,2.00
2018-12-25T03:46:21.111Z,2.03
2018-12-25T03:48:51.138Z,2.00
2018-12-25T03:51:21.099Z,1.70
2018-12-25T03:53:51.234Z,1.90
2018-12-25T03:56:21.268Z,2.30
2018-12-25T03:58:51.253Z,1.83
2018-12-25T04:01:21.278Z,1.90
2018-12-25T04:03:51.252Z,2.10
2018-12-25T04:06:21.289Z,1.70
2018-12-25T04:08:51.245Z,2.00
2018-12-25T04:11:21.230Z,1.80
2018-12-25T04:13:51.263Z,1.90
2018-12-25T04:16:21.303Z,1.80
2018-12-25T04:18:51.255Z,2.00
2018-12-25T04:21:21.302Z,1.80
2018-12-25T04:23:51.289Z,1.80
2018-12-25T04:26:21.324Z,1.80
2018-12-25T04:28:51.288Z,1.70
2018-12-25T04:31:21.241Z,1.70
2018-12-25T04:33:51.209Z,1.87
2018-12-25T04:36:21.226Z,1.97
2018-12-25T04:38:51.253Z,1.70
2018-12-25T04:41:21.317Z,1.80
2018-12-25T04:43:51.364Z,1.50
2018-12-25T04:46:21.397Z,2.00
2018-12-25T04:48:51.367Z,1.73
2018-12-25T04:51:21.395Z,1.60
2018-12-25T04:53:51.391Z,1.80
2018-12-25T04:56:21.333Z,1.77
2018-12-25T04:58:51.286Z,1.90
2018-12-25T05:01:21.238Z,1.70
2018-12-25T05:03:51.196Z,2.03
2018-12-25T05:06:21.194Z,2.10
2018-12-25T05:08:51.215Z,1.80
2018-12-25T05:11:21.182Z,2.00
2018-12-25T05:13:51.230Z,1.90
2018-12-25T05:16:21.190Z,1.90
2018-12-25T05:18:51.245Z,1.70
2018-12-25T05:21:21.197Z,2.00
2018-12-25T05:23:51.159Z,1.83
2018-12-25T05:26:21.181Z,2.00
2018-12-25T05:28:51.133Z,1.80
2018-12-25T05:31:21.091Z,2.00
2018-12-25T05:33:51.043Z,1.90
2018-12-25T05:36:21.039Z,1.83
2018-12-25T05:38:51.066Z,2.20
2018-12-25T05:41:21.025Z,1.97
2018-12-25T05:43:50.982Z,1.93
2018-12-25T05:46:21.006Z,1.87
2018-12-25T05:48:50.981Z,2.00
2018-12-25T05:51:20.937Z,2.10
2018-12-25T05:53:50.891Z,2.00
2018-12-25T05:56:20.847Z,2.00
2018-12-25T05:58:50.819Z,2.10
2018-12-25T06:01:20.807Z,2.10
2018-12-25T06:03:50.857Z,2.27
2018-12-25T06:06:20.894Z,2.20
2018-12-25T06:08:50.842Z,2.03
2018-12-25T06:11:20.817Z,2.27
2018-12-25T06:13:50.770Z,2.30
2018-12-25T06:16:20.718Z,2.10
2018-12-25T06:18:50.678Z,2.30
2018-12-25T06:21:20.694Z,2.13
2018-12-25T06:23:50.687Z,2.00
2018-12-25T06:26:20.661Z,2.30
2018-12-25T06:28:50.638Z,2.20
2018-12-25T06:31:21.512Z,1.90
2018-12-25T06:33:51.510Z,2.40
2018-12-25T06:36:21.463Z,2.40
2018-12-25T06:38:51.409Z,2.40
2018-12-25T06:41:21.413Z,2.00
2018-12-25T06:43:51.429Z,2.17
2018-12-25T06:46:21.390Z,2.03
2018-12-25T06:48:51.344Z,2.20
2018-12-25T06:51:21.294Z,1.97
2018-12-25T06:53:51.254Z,2.40
2018-12-25T06:56:21.270Z,2.30
2018-12-25T06:58:51.247Z,2.30
2018-12-25T07:01:21.263Z,2.50
2018-12-25T07:03:51.221Z,2.33
2018-12-25T07:06:21.184Z,2.40
2018-12-25T07:08:51.145Z,2.10
2018-12-25T07:11:21.150Z,2.50
2018-12-25T07:13:51.104Z,2.23
2018-12-25T07:16:21.079Z,2.73
2018-12-25T07:18:51.110Z,2.50
2018-12-25T07:21:21.133Z,2.53
2018-12-25T07:23:51.094Z,2.20
2018-12-25T07:26:21.039Z,2.33
2018-12-25T07:28:50.994Z,2.33
2018-12-25T07:31:21.019Z,2.60
2018-12-25T07:33:51.010Z,3.00
2018-12-25T07:36:20.970Z,3.10
2018-12-25T07:38:50.936Z,2.57
2018-12-25T07:41:20.894Z,3.00
2018-12-25T07:43:50.854Z,3.10
2018-12-25T07:46:20.826Z,2.90
2018-12-25T07:48:50.788Z,2.80
2018-12-25T07:51:21.120Z,3.10
2018-12-25T07:53:51.153Z,2.87
2018-12-25T07:56:21.125Z,3.27
2018-12-25T07:58:51.184Z,3.23
2018-12-25T08:01:21.203Z,3.20
2018-12-25T08:03:51.177Z,3.00
2018-12-25T08:06:21.123Z,3.13
2018-12-25T08:08:51.082Z,3.20
2018-12-25T08:11:21.054Z,3.27
2018-12-25T08:13:51.012Z,3.50
2018-12-25T08:16:21.051Z,3.00
2018-12-25T08:18:51.009Z,3.50
2018-12-25T08:21:29.109Z,3.20
2018-12-25T08:23:52.669Z,3.40
2018-12-25T08:26:22.620Z,3.50
2018-12-25T08:28:52.663Z,3.60
2018-12-25T08:31:22.645Z,3.40
2018-12-25T08:33:52.623Z,3.43
2018-12-25T08:36:22.686Z,4.03
2018-12-25T08:38:52.742Z,3.63
2018-12-25T08:41:22.715Z,3.73
2018-12-25T08:43:52.688Z,3.73
2018-12-25T08:46:22.770Z,3.60
2018-12-25T08:48:52.774Z,3.40
2018-12-25T08:51:22.743Z,3.73
2018-12-25T08:53:52.777Z,3.67
2018-12-25T08:56:22.729Z,3.50
2018-12-25T08:58:52.676Z,3.70
2018-12-25T09:01:23.641Z,3.57
2018-12-25T09:03:53.614Z,3.70
2018-12-25T09:06:23.650Z,4.13
2018-12-25T09:08:53.607Z,3.30
2018-12-25T09:11:23.569Z,3.90
2018-12-25T09:13:53.562Z,3.90
2018-12-25T09:16:23.517Z,3.60
2018-12-25T09:18:53.544Z,3.90
2018-12-25T09:21:23.578Z,3.87
2018-12-25T09:23:53.526Z,4.07
2018-12-25T09:26:23.505Z,3.93
2018-12-25T09:28:53.457Z,3.87
2018-12-25T09:31:23.482Z,3.97
2018-12-25T09:33:53.444Z,4.20
2018-12-25T09:36:23.423Z,3.90
2018-12-25T09:38:53.466Z,4.40
2018-12-25T09:41:23.409Z,4.27
2018-12-25T09:43:53.370Z,4.00
2018-12-25T09:46:23.386Z,4.23
2018-12-25T09:48:53.330Z,4.30
2018-12-25T09:51:23.277Z,4.30
2018-12-25T09:53:53.235Z,4.07
2018-12-25T09:56:23.201Z,4.40
2018-12-25T09:58:53.151Z,4.30
2018-12-25T10:01:23.114Z,4.23
2018-12-25T10:03:53.447Z,4.50
2018-12-25T10:06:23.390Z,4.30
2018-12-25T10:08:53.337Z,4.23
2018-12-25T10:11:23.798Z,4.27
2018-12-25T10:13:53.814Z,4.20
2018-12-25T10:16:25.516Z,4.37
2018-12-25T10:18:55.534Z,4.40
2018-12-25T10:21:26.586Z,3.93
2018-12-25T10:23:56.582Z,4.37
2018-12-25T10:26:26.533Z,4.37
2018-12-25T10:28:56.481Z,4.13
2018-12-25T10:31:26.418Z,4.50
2018-12-25T10:33:56.498Z,4.20
2018-12-25T10:36:26.528Z,4.20
2018-12-25T10:38:56.571Z,4.10
2018-12-25T10:41:26.513Z,4.30
2018-12-25T10:43:56.471Z,4.37
2018-12-25T10:46:26.426Z,4.40
2018-12-25T10:48:56.377Z,4.07
2018-12-25T10:51:26.353Z,4.30
2018-12-25T10:53:56.299Z,4.30
2018-12-25T10:56:26.258Z,4.30
2018-12-25T10:58:56.214Z,4.20
2018-12-25T11:01:29.018Z,4.10
2018-12-25T11:04:00.002Z,4.20
2018-12-25T11:06:29.946Z,4.40
2018-12-25T11:08:59.935Z,4.70
2018-12-25T11:11:29.891Z,4.53
2018-12-25T11:14:00.858Z,4.40
2018-12-25T11:16:30.852Z,4.73
2018-12-25T11:19:00.816Z,4.70
2018-12-25T11:21:30.834Z,4.63
2018-12-25T11:24:00.862Z,4.90
2018-12-25T11:26:30.839Z,4.80
2018-12-25T11:29:00.809Z,5.03
2018-12-25T11:31:30.771Z,5.17
2018-12-25T11:34:02.594Z,5.30
2018-12-25T11:36:32.381Z,5.00
2018-12-25T11:39:02.389Z,5.00
2018-12-25T11:41:32.345Z,5.07
2018-12-25T11:44:02.310Z,5.00
2018-12-25T11:46:32.257Z,5.00
2018-12-25T11:49:02.246Z,5.10
2018-12-25T11:51:32.199Z,5.03
2018-12-25T11:54:02.171Z,5.00
2018-12-25T11:56:32.129Z,5.03
2018-12-25T11:59:02.079Z,4.63
2018-12-25T12:01:32.054Z,5.10
2018-12-25T12:04:02.014Z,5.17
2018-12-25T12:06:32.004Z,5.17
2018-12-25T12:09:02.021Z,5.33
2018-12-25T12:11:33.062Z,5.00
2018-12-25T12:14:03.091Z,4.87
2018-12-25T12:16:33.043Z,5.10
2018-12-25T12:19:03.059Z,4.97
2018-12-25T12:21:33.022Z,4.80
2018-12-25T12:24:03.080Z,4.87
2018-12-25T12:26:33.073Z,4.67
2018-12-25T12:29:03.029Z,4.83
2018-12-25T12:31:33.034Z,4.27
2018-12-25T12:34:02.983Z,5.03
2018-12-25T12:36:32.974Z,4.77
2018-12-25T12:39:03.425Z,4.70
2018-12-25T12:41:33.403Z,4.70
2018-12-25T12:44:03.481Z,4.63
2018-12-25T12:46:33.440Z,4.67
2018-12-25T12:49:03.396Z,4.47
2018-12-25T12:51:33.390Z,5.00
2018-12-25T12:54:03.377Z,4.70
2018-12-25T12:56:33.390Z,4.97
2018-12-25T12:59:03.369Z,4.67
2018-12-25T13:01:33.334Z,4.70
2018-12-25T13:04:03.291Z,4.80
2018-12-25T13:06:33.263Z,4.53
2018-12-25T13:09:04.529Z,4.57
2018-12-25T13:11:34.510Z,5.00
2018-12-25T13:14:16.186Z,4.23
2018-12-25T13:16:46.193Z,4.70
2018-12-25T13:19:16.173Z,4.77
2018-12-25T13:21:46.144Z,5.03
2018-12-25T13:24:16.207Z,4.60
2018-12-25T13:26:46.161Z,5.03
2018-12-25T13:29:16.116Z,4.60
2018-12-25T13:31:46.061Z,5.03
2018-12-25T13:34:16.046Z,5.00
2018-12-25T13:36:46.046Z,4.80
2018-12-25T13:39:16.019Z,4.87
2018-12-25T13:41:46.039Z,4.47
2018-12-25T13:44:15.991Z,5.07
2018-12-25T13:46:51.485Z,4.70
2018-12-25T13:49:17.635Z,4.47
2018-12-25T13:51:47.617Z,4.73
2018-12-25T13:54:17.595Z,4.50
2018-12-25T13:56:47.555Z,4.53
2018-12-25T13:59:17.538Z,4.77
2018-12-25T14:01:47.491Z,4.47
2018-12-25T14:04:17.592Z,4.33
2018-12-25T14:06:47.542Z,4.67
2018-12-25T14:09:17.542Z,4.47
2018-12-25T14:11:47.631Z,4.53
2018-12-25T14:14:17.609Z,4.73
2018-12-25T14:16:47.625Z,4.70
2018-12-25T14:19:17.697Z,4.43
2018-12-25T14:21:47.661Z,4.47
2018-12-25T14:24:17.709Z,4.77
2018-12-25T14:26:47.721Z,4.70
2018-12-25T14:29:17.797Z,4.90
2018-12-25T14:31:47.802Z,4.30
2018-12-25T14:34:18.840Z,4.80
2018-12-25T14:36:48.799Z,4.50
2018-12-25T14:39:18.772Z,4.70
2018-12-25T14:41:48.726Z,4.40
2018-12-25T14:44:18.670Z,4.40
2018-12-25T14:46:48.653Z,4.37
2018-12-25T14:49:18.607Z,4.90
2018-12-25T14:51:48.572Z,4.70
2018-12-25T14:54:18.522Z,5.07
2018-12-25T14:56:48.482Z,5.63
2018-12-25T14:59:18.542Z,5.37
2018-12-25T15:01:48.486Z,5.50
2018-12-25T15:04:18.479Z,5.77
2018-12-25T15:06:48.431Z,5.90
2018-12-25T15:09:18.408Z,6.40
2018-12-25T15:11:48.413Z,5.97
2018-12-25T15:14:18.379Z,6.20
2018-12-25T15:16:48.456Z,6.37
2018-12-25T15:19:18.423Z,6.70
2018-12-25T15:21:48.373Z,6.00
2018-12-25T15:24:18.447Z,6.70
2018-12-25T15:26:48.411Z,6.33
2018-12-25T15:29:18.418Z,6.67
2018-12-25T15:31:48.833Z,6.10
2018-12-25T15:34:19.208Z,6.47
2018-12-25T15:36:49.789Z,6.50
2018-12-25T15:39:19.905Z,6.30
2018-12-25T15:41:50.280Z,6.47
2018-12-25T15:44:20.718Z,6.67
2018-12-25T15:46:51.401Z,6.63
2018-12-25T15:49:21.736Z,6.40
2018-12-25T15:51:53.955Z,6.30
2018-12-25T15:54:24.355Z,6.83
2018-12-25T15:56:55.002Z,6.90
2018-12-25T15:59:25.130Z,6.77
2018-12-25T16:01:55.102Z,6.70
2018-12-25T16:04:25.106Z,5.90
2018-12-25T16:06:55.110Z,6.57
2018-12-25T16:09:25.186Z,7.00
2018-12-25T16:11:55.156Z,6.67
2018-12-25T16:14:25.238Z,6.53
2018-12-25T16:16:55.207Z,6.37
2018-12-25T16:19:25.241Z,6.40
2018-12-25T16:21:55.268Z,6.30
2018-12-25T16:24:27.564Z,6.53
2018-12-25T16:26:57.089Z,6.23
2018-12-25T16:29:27.153Z,6.33
2018-12-25T16:31:57.111Z,6.13
2018-12-25T16:34:27.184Z,6.37
2018-12-25T16:36:57.199Z,6.47
2018-12-25T16:39:27.277Z,6.43
2018-12-25T16:41:57.307Z,6.30
2018-12-25T16:44:27.898Z,6.03
2018-12-25T16:46:57.851Z,6.07
2018-12-25T16:49:27.810Z,6.23
2018-12-25T16:51:57.763Z,6.30
2018-12-25T16:54:27.715Z,5.97
2018-12-25T16:56:57.800Z,6.20
2018-12-25T16:59:28.883Z,6.40
2018-12-25T17:01:58.918Z,6.23
2018-12-25T17:04:28.942Z,5.90
2018-12-25T17:06:58.910Z,5.87
2018-12-25T17:09:28.926Z,6.00
2018-12-25T17:11:58.886Z,5.83
2018-12-25T17:14:28.930Z,6.10
2018-12-25T17:16:58.886Z,6.00
2018-12-25T17:19:28.890Z,6.00
2018-12-25T17:21:58.871Z,5.93
2018-12-25T17:24:28.874Z,6.00
2018-12-25T17:26:58.844Z,6.07
2018-12-25T17:29:28.989Z,5.70
2018-12-25T17:31:58.946Z,6.03
2018-12-25T17:34:28.914Z,5.97
2018-12-25T17:36:59.098Z,5.70
2018-12-25T17:39:29.102Z,5.77
2018-12-25T17:41:59.074Z,6.10
2018-12-25T17:44:29.178Z,5.90
2018-12-25T17:46:59.217Z,5.63
2018-12-25T17:49:29.225Z,5.77
2018-12-25T17:51:59.264Z,5.80
2018-12-25T17:54:29.289Z,6.03
2018-12-25T17:56:59.302Z,6.10
2018-12-25T17:59:29.373Z,5.80
2018-12-25T18:01:59.347Z,5.43
2018-12-25T18:04:29.358Z,5.87
2018-12-25T18:06:59.378Z,5.37
2018-12-25T18:09:29.346Z,5.70
2018-12-25T18:11:59.354Z,5.50
2018-12-25T18:14:29.397Z,5.60
2018-12-25T18:16:59.395Z,5.43
2018-12-25T18:19:29.433Z,5.80
2018-12-25T18:21:59.508Z,5.77
2018-12-25T18:24:29.618Z,5.83
2018-12-25T18:26:59.574Z,6.10
2018-12-25T18:29:29.837Z,5.40
2018-12-25T18:31:59.788Z,5.50
2018-12-25T18:34:29.871Z,5.47
2018-12-25T18:36:59.825Z,5.80
2018-12-25T18:39:29.915Z,5.67
2018-12-25T18:41:59.957Z,5.40
2018-12-25T18:44:29.967Z,5.80
2018-12-25T18:46:59.991Z,5.47
2018-12-25T18:49:30.004Z,5.37
2018-12-25T18:51:59.943Z,5.80
2018-12-25T18:54:29.990Z,5.30
2018-12-25T18:57:00.017Z,5.50
2018-12-25T18:59:30.025Z,5.27
2018-12-25T19:02:00.082Z,5.40
2018-12-25T19:04:30.094Z,5.63
2018-12-25T19:07:00.063Z,5.20
2018-12-25T19:09:30.127Z,5.23
2018-12-25T19:12:00.455Z,5.37
2018-12-25T19:14:30.787Z,5.40
2018-12-25T19:17:01.175Z,5.40
2018-12-25T19:19:31.515Z,5.30
2018-12-25T19:22:01.952Z,5.13
2018-12-25T19:24:36.236Z,5.40
2018-12-25T19:27:04.351Z,5.17
2018-12-25T19:29:34.829Z,4.93
2018-12-25T19:32:05.326Z,5.13
2018-12-25T19:34:35.822Z,5.20
2018-12-25T19:37:08.414Z,5.10
2018-12-25T19:39:38.493Z,5.03
2018-12-25T19:42:08.438Z,5.13
2018-12-25T19:44:38.439Z,5.40
2018-12-25T19:47:08.393Z,5.20
2018-12-25T19:49:38.350Z,4.87
2018-12-25T19:52:08.313Z,5.17
2018-12-25T19:54:44.569Z,4.90
2018-12-25T19:57:10.015Z,4.93
2018-12-25T19:59:39.968Z,5.27
2018-12-25T20:02:09.939Z,5.00
2018-12-25T20:05:12.601Z,4.80
2018-12-25T20:08:31.796Z,4.97
2018-12-25T20:12:03.977Z,4.60
2018-12-25T20:14:49.537Z,4.97
2018-12-25T20:18:06.731Z,4.70
2018-12-25T20:21:13.671Z,4.57
2018-12-25T20:24:33.882Z,4.73
2018-12-25T20:27:43.616Z,4.40
2018-12-25T20:30:59.971Z,4.57
2018-12-25T20:34:11.407Z,4.60
2018-12-25T20:37:27.023Z,4.63
2018-12-25T20:40:59.558Z,4.43
2018-12-25T20:44:08.702Z,4.70
2018-12-25T20:47:31.942Z,4.83
2018-12-25T20:50:29.231Z,4.53
2018-12-25T20:53:45.822Z,4.23
2018-12-25T20:57:03.799Z,4.63
2018-12-25T21:00:19.725Z,4.47
2018-12-25T21:03:29.534Z,4.43
2018-12-25T21:06:42.174Z,4.20
2018-12-25T21:09:58.472Z,4.60
2018-12-25T21:13:24.195Z,4.10
2018-12-25T21:16:18.198Z,3.90
2018-12-25T21:19:28.321Z,4.30
2018-12-25T21:22:47.160Z,4.30
2018-12-25T21:25:52.801Z,4.27
2018-12-25T21:28:21.329Z,4.13
2018-12-25T21:30:51.390Z,4.30
2018-12-25T21:33:21.409Z,3.90
2018-12-25T21:35:51.482Z,4.03
2018-12-25T21:38:21.454Z,4.13
2018-12-25T21:40:51.419Z,4.13
2018-12-25T21:43:21.439Z,3.93
2018-12-25T21:45:51.405Z,3.90
2018-12-25T21:48:21.406Z,3.80
2018-12-25T21:50:52.454Z,3.97
2018-12-25T21:53:23.712Z,4.10
2018-12-25T21:55:53.909Z,3.80
2018-12-25T21:58:23.950Z,3.77
2018-12-25T22:00:53.918Z,3.80
2018-12-25T22:03:23.890Z,3.67
2018-12-25T22:05:53.857Z,4.10
2018-12-25T22:08:23.818Z,3.67
2018-12-25T22:10:53.798Z,3.50
2018-12-25T22:13:23.833Z,3.70
2018-12-25T22:15:53.799Z,3.67
2018-12-25T22:18:23.902Z,3.47
2018-12-25T22:20:53.902Z,3.70
2018-12-25T22:23:23.878Z,3.53
2018-12-25T22:25:53.922Z,3.53
2018-12-25T22:28:24.003Z,4.07
2018-12-25T22:30:54.438Z,3.50
2018-12-25T22:33:24.390Z,3.50
2018-12-25T22:35:54.534Z,3.30
2018-12-25T22:38:24.486Z,3.60
2018-12-25T22:40:54.453Z,3.67
2018-12-25T22:43:24.491Z,3.60
2018-12-25T22:45:54.517Z,3.50
2018-12-25T22:48:24.477Z,3.50
2018-12-25T22:50:54.534Z,3.60
2018-12-25T22:53:24.593Z,3.30
2018-12-25T22:55:54.561Z,3.70
2018-12-25T22:58:24.578Z,3.30
2018-12-25T23:00:54.534Z,3.20
2018-12-25T23:03:24.489Z,3.40
2018-12-25T23:05:54.446Z,3.40
2018-12-25T23:08:24.397Z,3.40
2018-12-25T23:10:54.388Z,3.30
2018-12-25T23:13:24.348Z,3.17
2018-12-25T23:15:54.306Z,3.20
2018-12-25T23:18:24.264Z,3.03
2018-12-25T23:20:54.313Z,3.27
2018-12-25T23:23:24.412Z,3.07
2018-12-25T23:25:54.362Z,3.30
2018-12-25T23:28:24.383Z,3.50
2018-12-25T23:30:54.338Z,3.50
2018-12-25T23:33:24.295Z,3.10
2018-12-25T23:35:54.243Z,3.10
2018-12-25T23:38:24.258Z,3.00
2018-12-25T23:40:54.219Z,3.17
2018-12-25T23:43:24.173Z,2.97
2018-12-25T23:45:54.160Z,3.07
2018-12-25T23:48:24.104Z,3.00
2018-12-25T23:50:54.068Z,3.33
2018-12-25T23:53:24.023Z,3.07
2018-12-25T23:55:54.062Z,3.00
2018-12-25T23:58:24.043Z,2.93
